TAF PAHO
PAHO 090543Z 0906/1006 26010KT P6SM SCT020 BKN040 TEMPO 0906/0909 BKN020 FM091800 06008KT 2SM -SN OVC015=
METAR PAHO
WC PAHO
WS PAHO
WV PAHO